Flight Track Log - Related Links

Times and Time Zones

All times are in EDT time to prevent confusion due to time zone crossing. See the CSN6508 flight status page for this flight to view local times or setup timezone preferences in your user account.

Time Position Orientation Groundspeed Altitude Reporting Facility
EDT Latitude Longitude Course Direction KTS MPH feet Rate Location/Type
Fri 09:23:15 AM 32.6400 122.0074 North  Level Estimated
Fri 09:24:15 AM 32.7382 122.0218 North  Level Estimated
Fri 09:25:15 AM 32.8364 122.0361 North  Level Estimated
Fri 09:26:15 AM 32.9345 122.0506 North  Level Estimated
Fri 09:27:15 AM 33.0327 122.0650 North  Level Estimated
Fri 09:28:15 AM 33.1309 122.0795 North  Level Estimated
Fri 09:29:15 AM 33.2290 122.0940 North  Level Estimated
Fri 09:30:15 AM 33.3272 122.1085 North  Level Estimated
Fri 09:31:15 AM 33.4253 122.1231 North  Level Estimated
Fri 09:32:15 AM 33.5235 122.1377 North  Level Estimated
Fri 09:33:15 AM 33.6216 122.1524 North  Level Estimated
Fri 09:34:15 AM 33.7198 122.1670 North  Level Estimated
Fri 09:35:15 AM 33.8179 122.1817 North  Level Estimated
Fri 09:36:15 AM 33.9161 122.1965 North  Level Estimated
Fri 09:37:15 AM 34.0142 122.2113 North  Level Estimated
Fri 09:38:15 AM 34.1124 122.2261 North  Level Estimated
Fri 09:39:15 AM 34.2105 122.2409 North  Level Estimated
Fri 09:40:15 AM 34.3086 122.2558 North  Level Estimated
Fri 09:41:15 AM 34.4068 122.2707 North  Level Estimated
Fri 09:42:15 AM 34.5049 122.2857 North  Level Estimated
Fri 09:43:15 AM 34.6030 122.3006 North  Level Estimated
Fri 09:44:15 AM 34.7012 122.3157 North  Level Estimated
Fri 09:45:15 AM 34.7993 122.3307 North  Level Estimated
Fri 09:46:15 AM 34.8974 122.3458 North  Level Estimated
Fri 09:47:15 AM 34.9956 122.3609 North  Level Estimated
Fri 09:48:15 AM 35.0937 122.3761 North  Level Estimated
Fri 09:49:15 AM 35.1918 122.3913 North  Level Estimated
Fri 09:50:15 AM 35.2899 122.4065 North  Level Estimated
Fri 09:51:15 AM 35.3880 122.4218 North  Level Estimated
Fri 09:52:15 AM 35.4862 122.4371 North  Level Estimated
Fri 09:53:15 AM 35.5843 122.4525 North  Level Estimated
Fri 09:54:15 AM 35.6824 122.4679 North  Level Estimated
Fri 09:55:15 AM 35.7805 122.4833 North  Level Estimated
Fri 09:56:15 AM 35.8786 122.4987 North  Level Estimated
Fri 09:57:15 AM 35.9767 122.5142 North  Level Estimated
Fri 09:58:15 AM 36.0748 122.5298 North  Level Estimated
Fri 09:59:15 AM 36.1729 122.5454 North  Level Estimated
Fri 10:00:15 AM 36.2710 122.5610 North  Level Estimated
Fri 10:01:15 AM 36.3691 122.5766 North  Level Estimated
Fri 10:02:15 AM 36.4672 122.5923 North  Level Estimated
Fri 10:03:15 AM 36.5653 122.6081 North  Level Estimated
Fri 10:04:15 AM 36.6634 122.6238 North  Level Estimated
Fri 10:05:15 AM 36.7615 122.6397 North  Level Estimated
Fri 10:06:15 AM 36.8596 122.6555 North  Level Estimated
Fri 10:07:15 AM 36.9577 122.6714 North  Level Estimated
Fri 10:08:15 AM 37.0558 122.6873 North  Level Estimated
Fri 10:09:15 AM 37.1538 122.7033 North  Level Estimated
Fri 10:10:15 AM 37.2519 122.7194 North  Level Estimated
Fri 10:11:15 AM 37.3500 122.7354 North  Level Estimated
Fri 10:12:15 AM 37.4481 122.7515 North  Level Estimated
Fri 10:13:15 AM 37.5461 122.7677 North  Level Estimated
Fri 10:14:15 AM 37.6442 122.7839 North  Level Estimated
Fri 10:15:15 AM 37.7423 122.8001 North  Level Estimated
Fri 10:16:15 AM 37.8404 122.8164 North  Level Estimated
Fri 10:17:15 AM 37.9384 122.8327 North  Level Estimated
Fri 10:18:15 AM 38.0365 122.8490 North  Level Estimated
Fri 10:19:15 AM 38.1345 122.8654 North  Level Estimated
Fri 10:20:15 AM 38.2326 122.8819 North  Level Estimated
Fri 10:21:15 AM 38.3307 122.8984 North  Level Estimated
Fri 10:22:15 AM 38.4287 122.9149 North  Level Estimated
Fri 10:23:15 AM 38.5268 122.9315 North  Level Estimated
Fri 10:24:15 AM 38.6248 122.9481 North  Level Estimated
Fri 10:25:15 AM 38.7229 122.9648 North  Level Estimated
Fri 10:26:15 AM 38.8209 122.9815 North  Level Estimated
Fri 10:27:15 AM 38.9189 122.9983 North  Level Estimated
Fri 10:28:15 AM 39.0170 123.0151 North  Level Estimated
Fri 10:29:15 AM 39.1150 123.0320 North  Level Estimated
Fri 10:30:15 AM 39.2131 123.0489 North  Level Estimated
Fri 10:31:15 AM 39.3111 123.0658 North  Level Estimated
Fri 10:32:15 AM 39.4091 123.0828 North  Level Estimated
Fri 10:33:15 AM 39.5071 123.0999 North  Level Estimated
Fri 10:34:15 AM 39.6052 123.1170 North  Level Estimated
Fri 10:35:15 AM 39.7032 123.1341 North  Level Estimated
Fri 10:36:15 AM 39.8012 123.1513 North  Level Estimated
Fri 10:37:15 AM 39.8992 123.1686 North  Level Estimated
Fri 10:38:15 AM 39.9972 123.1859 North  Level Estimated
Fri 10:39:15 AM 40.0952 123.2032 North  Level Estimated
Fri 10:40:15 AM 40.1933 123.2206 North  Level Estimated
Fri 10:41:15 AM 40.2913 123.2380 North  Level Estimated
Fri 10:42:15 AM 40.3893 123.2555 North  Level Estimated
Fri 10:43:15 AM 40.4873 123.2731 North  Level Estimated
Fri 10:44:15 AM 40.5853 123.2907 North  Level Estimated
Fri 10:45:15 AM 40.6833 123.3083 North  Level Estimated
Fri 10:46:15 AM 40.7813 123.3260 North  Level Estimated
Fri 10:47:15 AM 40.8792 123.3438 North  Level Estimated
Fri 10:48:15 AM 40.9772 123.3616 North  Level Estimated
Fri 10:49:15 AM 41.0752 123.3794 North  Level Estimated
Fri 10:50:15 AM 41.1732 123.3974 North  Level Estimated
Fri 10:51:15 AM 41.2712 123.4153 North  Level Estimated
Fri 10:52:15 AM 41.3692 123.4333 North  Level Estimated
Fri 10:53:15 AM 41.4671 123.4514 North  Level Estimated
Fri 10:54:15 AM 41.5651 123.4696 North  Level Estimated
Fri 10:55:15 AM 41.6631 123.4877 188° South  Level Estimated
Fri 10:56:15 AM 41.5651 123.4696 North  Level Estimated
Fri 10:57:15 AM 41.6631 123.4877 188° South  Level Estimated
Fri 10:58:15 AM 41.5651 123.4696 North  Level Estimated
Fri 10:59:15 AM 41.6631 123.4877 188° South  Level Estimated
Fri 11:00:15 AM 41.5651 123.4696 North  Level Estimated
Fri 11:01:15 AM 41.6631 123.4877 188° South  Level Estimated
Fri 11:02:15 AM 41.5651 123.4696 North  Level Estimated
Fri 11:03:15 AM 41.6631 123.4877 188° South  Level Estimated
Fri 11:04:15 AM 41.5651 123.4696 North  Level Estimated
Fri 11:05:15 AM 41.6631 123.4877 188° South  Level Estimated
Fri 11:06:15 AM 41.5651 123.4696 North  Level Estimated
Fri 11:07:15 AM 41.6631 123.4877 188° South  Level Estimated
Fri 11:08:15 AM 41.5651 123.4696 North  Level Estimated
Fri 11:09:15 AM 41.6631 123.4877 188° South  Level Estimated
Fri 11:10:15 AM 41.5651 123.4696 188° South  Level Estimated

Login

Don't have an account? Register now (free) for customized features, flight alerts, and more!